• Join FlightAware (Why Join?)
  • Login
  • US Flag 
11:05PM EDT


 

Airport Tracker/Info


-or-


 

Live Flight TrackerFlight Track Log ✈ UAL1402 ✈ 19-Jul-2013 ✈ KIAH - TNCB / BON

Flight Track Log - Related Links

Times and Time Zones

All times are in EDT time to prevent confusion due to time zone crossing. See the UAL1402 flight status page for this flight to view local times or setup timezone preferences in your user account.

Time Position Orientation Groundspeed Altitude Reporting Facility
EDT Latitude Longitude Course Direction KTS MPH feet Rate Location/Type
01:30AM 29.9644 -95.3436 152° Southeast 150 173 200  Level FlightAware ADS-B
01:30AM 29.9559 -95.3384 152° Southeast 178 205 700 2,220 Climbing FlightAware ADS-B
01:30AM 29.9533 -95.3364 146° Southeast 176 203 800 2,100 Climbing FlightAware ADS-B
01:30AM 29.9459 -95.3272 133° Southeast 181 208 1,300 1,680 Climbing FlightAware ADS-B
01:31AM 29.9372 -95.3142 128° Southeast 200 230 1,600 1,020 Climbing FlightAware ADS-B
01:31AM 29.9301 -95.3033 127° Southeast 217 250 1,800 1,500 Climbing FlightAware ADS-B
01:31AM 29.9275 -95.2998 131° Southeast 219 252 2,000 3,000 Climbing FlightAware ADS-B
01:31AM 29.9244 -95.2963 136° Southeast 220 253 2,200 2,220 Climbing FlightAware ADS-B
01:31AM 29.9218 -95.2936 138° Southeast 220 253 2,300 3,000 Climbing FlightAware ADS-B
01:31AM 29.9163 -95.2890 144° Southeast 219 252 2,700 3,240 Climbing FlightAware ADS-B
01:31AM 29.9129 -95.2865 147° Southeast 217 250 2,900 2,520 Climbing FlightAware ADS-B
01:32AM 29.8993 -95.2775 150° Southeast 221 254 3,500 1,620 Climbing FlightAware ADS-B
01:32AM 29.8828 -95.2667 150° Southeast 245 282 3,800 1,380 Climbing FlightAware ADS-B
01:32AM 29.8661 -95.2557 150° Southeast 262 302 4,300 2,220 Climbing FlightAware ADS-B
01:32AM 29.8540 -95.2478 150° Southeast 269 310 4,800 2,400 Climbing FlightAware ADS-B
01:33AM 29.8372 -95.2368 150° Southeast 272 313 5,400 2,580 Climbing FlightAware ADS-B
01:33AM 29.8207 -95.2261 151° Southeast 277 319 6,100 2,760 Climbing FlightAware ADS-B
01:33AM 29.8033 -95.2146 150° Southeast 281 323 6,800 2,700 Climbing FlightAware ADS-B
01:33AM 29.7858 -95.2032 151° Southeast 284 327 7,500 2,460 Climbing FlightAware ADS-B
01:34AM 29.7681 -95.1916 150° Southeast 288 331 8,100 2,580 Climbing FlightAware ADS-B
01:34AM 29.7321 -95.1680 150° Southeast 295 339 9,500 2,340 Climbing FlightAware ADS-B
01:35AM 29.6948 -95.1438 151° Southeast 310 357 10,500 1,440 Climbing FlightAware ADS-B
01:35AM 29.6540 -95.1173 151° Southeast 344 396 11,000 1,080 Climbing FlightAware ADS-B
01:36AM 29.6097 -95.0884 150° Southeast 374 430 11,600 1,560 Climbing FlightAware ADS-B
01:36AM 29.5629 -95.0580 151° Southeast 384 442 12,600 2,040 Climbing FlightAware ADS-B
01:37AM 29.4667 -94.9885 139° Southeast 398 458 14,800 2,100 Climbing FlightAware ADS-B
01:37AM 29.4537 -94.9726 133° Southeast 400 460 15,200 1,860 Climbing FlightAware ADS-B
01:39AM 29.3415 -94.8203 130° Southeast 422 486 18,000 1,800 Climbing FlightAware ADS-B
01:39AM 29.3015 -94.7661 130° Southeast 428 493 18,900 1,740 Climbing FlightAware ADS-B
01:40AM 29.2549 -94.7021 130° Southeast 432 497 20,000 1,560 Climbing FlightAware ADS-B
01:41AM 29.2157 -94.6482 130° Southeast 438 504 20,700 1,440 Climbing FlightAware ADS-B
01:41AM 29.1762 -94.5942 130° Southeast 444 511 21,500 1,380 Climbing FlightAware ADS-B
01:42AM 29.1360 -94.5395 130° Southeast 451 519 22,100 1,260 Climbing FlightAware ADS-B
01:42AM 29.0890 -94.4754 130° Southeast 458 527 22,900 1,260 Climbing FlightAware ADS-B
01:43AM 29.0477 -94.4193 130° Southeast 463 533 23,500 1,260 Climbing FlightAware ADS-B
01:43AM 29.0056 -94.3623 130° Southeast 466 536 24,200 1,260 Climbing FlightAware ADS-B
01:44AM 28.9635 -94.3050 130° Southeast 470 541 24,800 1,080 Climbing FlightAware ADS-B
01:44AM 28.9207 -94.2471 130° Southeast 473 544 25,300 1,080 Climbing FlightAware ADS-B
01:45AM 28.8772 -94.1881 130° Southeast 478 550 25,900 1,080 Climbing FlightAware ADS-B
01:45AM 28.8340 -94.1299 130° Southeast 483 556 26,400 960 Climbing FlightAware ADS-B
01:46AM 28.7896 -94.0701 130° Southeast 486 559 26,900 840 Climbing FlightAware ADS-B
01:46AM 28.7445 -94.0094 130° Southeast 490 564 27,300 840 Climbing FlightAware ADS-B
01:47AM 28.6990 -93.9482 130° Southeast 495 570 27,800 960 Climbing FlightAware ADS-B
01:47AM 28.6530 -93.8863 130° Southeast 495 570 28,300 1,020 Climbing FlightAware ADS-B
01:48AM 28.6076 -93.8250 130° Southeast 495 570 28,900 1,020 Climbing FlightAware ADS-B
01:48AM 28.5623 -93.7643 130° Southeast 495 570 29,400 960 Climbing FlightAware ADS-B
01:49AM 28.5177 -93.7046 130° Southeast 495 570 29,900 960 Climbing FlightAware ADS-B
01:49AM 28.4721 -93.6434 130° Southeast 495 570 30,400 960 Climbing FlightAware ADS-B
01:50AM 28.4060 -93.5556 131° Southeast 496 571 31,100 900 Climbing FlightAware ADS-B
01:51AM 28.3470 -93.4774 131° Southeast 497 572 31,700 900 Climbing FlightAware ADS-B
01:51AM 28.3023 -93.4183 131° Southeast 494 568 32,200 960 Climbing FlightAware ADS-B
01:52AM 28.2388 -93.3342 131° Southeast 494 568 32,900 720 Climbing FlightAware ADS-B
01:55AM 27.9682 -92.9774 131° Southeast 490 564 35,000 540 Climbing FlightAware ADS-B
01:55AM 27.9237 -92.9189 131° Southeast 490 564 35,000 -60 Level FlightAware ADS-B
01:57AM 27.7978 -92.7550 131° Southeast 488 562 34,900 -60 Descending Houston Center
01:58AM 27.7097 -92.6439 132° Southeast 483 556 34,900  Level Houston Center
01:59AM 27.6233 -92.5272 130° Southeast 482 555 35,000  Climbing Houston Center
02:00AM 27.5356 -92.4142 131° Southeast 480 552 34,900  Descending Houston Center
02:01AM 27.4469 -92.3008 131° Southeast 482 555 35,000  Climbing Houston Center
02:02AM 27.3597 -92.1861 131° Southeast 483 556 34,900  Descending Houston Center
02:03AM 27.2708 -92.0733 132° Southeast 484 557 35,000  Climbing Houston Center
02:04AM 27.1819 -91.9619 132° Southeast 480 552 34,900  Descending Houston Center
02:05AM 27.0758 -91.8708 143° Southeast 485 558 35,000  Climbing Houston Center
02:06AM 26.9681 -91.7831 144° Southeast 480 552 35,000  Level Houston Center
02:07AM 26.8583 -91.6969 145° Southeast 480 552 35,000 -60 Level Houston Center
02:08AM 26.7650 -91.6192 143° Southeast 482 555 34,900 -60 Descending Houston Center
02:09AM 26.6447 -91.5242 145° Southeast 480 552 34,900  Level Houston Center
02:10AM 26.5383 -91.4403 145° Southeast 477 549 35,000  Climbing Houston Center
02:11AM 26.4325 -91.3561 145° Southeast 476 548 34,900  Descending Houston Center
02:13AM 26.2733 -91.2228 145° Southeast  Level FlightAware Approximate
02:20AM 25.5683 -90.6710 145° Southeast  Level FlightAware Approximate
02:21AM 25.4674 -90.5927 145° Southeast  Level FlightAware Approximate
02:22AM 25.3665 -90.5145 145° Southeast  Level FlightAware Approximate
02:23AM 25.2655 -90.4365 145° Southeast  Level FlightAware Approximate
02:24AM 25.1645 -90.3586 145° Southeast  Level FlightAware Approximate
02:25AM 25.0635 -90.2808 145° Southeast  Level FlightAware Approximate
02:26AM 24.9624 -90.2032 145° Southeast  Level FlightAware Approximate
02:27AM 24.8613 -90.1257 145° Southeast  Level FlightAware Approximate
02:28AM 24.7601 -90.0483 145° Southeast  Level FlightAware Approximate
02:29AM 24.6589 -89.9710 145° Southeast  Level FlightAware Approximate
02:30AM 24.5577 -89.8939 145° Southeast  Level FlightAware Approximate
02:31AM 24.4690 -89.8037 118° Southeast  Level FlightAware Approximate
02:32AM 24.4109 -89.6844 118° Southeast  Level FlightAware Approximate
02:33AM 24.3527 -89.5652 118° Southeast  Level FlightAware Approximate
02:34AM 24.2945 -89.4462 118° Southeast  Level FlightAware Approximate
02:35AM 24.2361 -89.3272 118° Southeast  Level FlightAware Approximate
02:36AM 24.1777 -89.2083 118° Southeast  Level FlightAware Approximate
02:37AM 24.1192 -89.0895 118° Southeast  Level FlightAware Approximate
02:38AM 24.0605 -88.9709 118° Southeast  Level FlightAware Approximate
02:39AM 24.0020 -88.8523 118° Southeast  Level FlightAware Approximate
02:40AM 23.9433 -88.7338 118° Southeast  Level FlightAware Approximate
02:40AM 23.8180 -88.5160 118° Southeast 468 539 35,000  Level FlightAware
02:40AM 23.7930 -88.4670 119° Southeast 466 536 35,000  Level FlightAware
02:41AM 23.7370 -88.3580 119° Southeast 466 536 35,000  Level FlightAware
02:42AM 23.6880 -88.2620 119° Southeast 466 536 35,000  Level FlightAware
02:43AM 23.6400 -88.1680 119° Southeast 464 534 35,000  Level FlightAware
02:43AM 23.5940 -88.0800 120° Southeast 463 533 35,000  Level FlightAware
02:44AM 23.5540 -88.0010 119° Southeast 463 533 35,000  Level FlightAware
02:45AM 23.5070 -87.9110 120° Southeast 464 534 35,000  Level FlightAware
02:46AM 23.4560 -87.8120 119° Southeast 464 534 35,000  Level FlightAware
02:46AM 23.4060 -87.7130 119° Southeast 465 535 35,000  Level FlightAware
02:47AM 23.3670 -87.6350 119° Southeast 465 535 35,000  Level FlightAware
02:48AM 23.3210 -87.5450 119° Southeast 464 534 35,000  Level FlightAware
02:48AM 23.2750 -87.4530 119° Southeast 463 533 35,000  Level FlightAware
02:49AM 23.2390 -87.3820 119° Southeast 463 533 35,000  Level FlightAware
02:50AM 23.1940 -87.2940 119° Southeast 463 533 35,000  Level FlightAware
02:50AM 23.1590 -87.2250 119° Southeast 462 532 35,000  Level FlightAware
02:51AM 23.1110 -87.1310 119° Southeast 462 532 35,000  Level FlightAware
02:52AM 23.0680 -87.0470 119° Southeast 464 534 35,000  Level FlightAware
02:53AM 23.0270 -86.9670 119° Southeast 465 535 35,000  Level FlightAware
02:53AM 22.9750 -86.8650 119° Southeast 465 535 35,000  Level FlightAware
02:54AM 22.9270 -86.7730 120° Southeast 467 537 35,000  Level FlightAware
02:55AM 22.8860 -86.6920 119° Southeast 467 537 35,000  Level FlightAware
02:55AM 22.8560 -86.6340 119° Southeast 466 536 35,000  Level FlightAware
02:56AM 22.8110 -86.5470 119° Southeast 464 534 35,000  Level FlightAware
02:57AM 22.7690 -86.4690 120° Southeast 466 536 35,000  Level FlightAware
02:57AM 22.7160 -86.4050 132° Southeast 469 540 35,000  Level FlightAware
02:58AM 22.6580 -86.3520 140° Southeast 467 537 35,000  Level FlightAware
02:59AM 22.5760 -86.2780 140° Southeast 467 537 35,000  Level FlightAware
02:59AM 22.5300 -86.2370 141° Southeast 468 539 35,000  Level FlightAware
03:00AM 22.3870 -86.1070 140° Southeast 464 534 35,000  Level FlightAware
03:01AM 22.3150 -86.0420 140° Southeast 462 532 35,000  Level FlightAware
03:02AM 22.2480 -85.9810 140° Southeast 464 534 35,000  Level FlightAware
03:02AM 22.1820 -85.9220 140° Southeast 465 535 35,000  Level FlightAware
03:03AM 22.1220 -85.8670 140° Southeast 463 533 35,000  Level FlightAware
03:04AM 22.0670 -85.8170 140° Southeast 465 535 35,000  Level FlightAware
03:04AM 22.0030 -85.7580 139° Southeast 465 535 35,000  Level FlightAware
03:05AM 21.9490 -85.6810 127° Southeast 459 528 35,000  Level FlightAware
03:05AM 21.9430 -85.6360 98° East 460 529 35,000  Level FlightAware
03:06AM 21.9390 -85.5450 93° East 463 533 35,000  Level FlightAware
03:07AM 21.9340 -85.4570 93° East 466 536 35,000  Level FlightAware
03:07AM 21.9280 -85.3620 94° East 467 537 35,000  Level FlightAware
03:08AM 21.9200 -85.2340 94° East 467 537 35,000  Level FlightAware
03:09AM 21.9150 -85.1560 94° East 468 539 35,000  Level FlightAware
03:09AM 21.9100 -85.0850 94° East 469 540 35,000  Level FlightAware
03:10AM 21.9040 -84.9850 94° East 469 540 35,000  Level FlightAware
03:11AM 21.8630 -84.8460 108° East 473 544 35,000  Level FlightAware
03:12AM 21.7980 -84.7220 119° Southeast 471 542 35,000  Level FlightAware
03:13AM 21.7560 -84.6440 120° Southeast 469 540 35,000 180 Level FlightAware
03:14AM 21.7000 -84.5380 120° Southeast 468 539 35,300 540 Climbing FlightAware
03:14AM 21.6530 -84.4490 120° Southeast 466 536 35,900 720 Climbing FlightAware
03:15AM 21.6040 -84.3580 120° Southeast 465 535 36,400 600 Climbing FlightAware
03:16AM 21.5720 -84.2970 119° Southeast 465 535 36,700 300 Climbing FlightAware
03:17AM 21.4990 -84.1580 119° Southeast 466 536 37,000 120 Climbing FlightAware
03:18AM 21.4250 -84.0220 120° Southeast 456 525 37,000  Level FlightAware
03:19AM 21.3850 -83.9490 120° Southeast 454 522 37,000  Level FlightAware
03:19AM 21.3410 -83.8670 120° Southeast 453 521 37,000  Level FlightAware
03:20AM 21.3030 -83.7930 119° Southeast 453 521 37,000  Level FlightAware
03:21AM 21.2530 -83.7020 121° Southeast 453 521 37,000  Level FlightAware
03:21AM 21.2100 -83.6240 121° Southeast 453 521 37,000  Level FlightAware
03:22AM 21.1770 -83.5620 120° Southeast 453 521 37,000  Level FlightAware
03:23AM 21.1180 -83.4530 120° Southeast 453 521 37,000  Level FlightAware
03:23AM 21.0860 -83.3920 119° Southeast 453 521 37,000  Level FlightAware
03:24AM 21.0440 -83.3100 119° Southeast 453 521 37,000  Level FlightAware
03:27AM 20.9118 -83.0492 118° Southeast  Level FlightAware Approximate
03:28AM 20.8529 -82.9334 119° Southeast  Level FlightAware Approximate
03:29AM 20.7939 -82.8177 119° Southeast  Level FlightAware Approximate
03:30AM 20.7348 -82.7021 119° Southeast  Level FlightAware Approximate
03:31AM 20.6757 -82.5866 119° Southeast  Level FlightAware Approximate
03:32AM 20.6168 -82.4719 119° Southeast  Level FlightAware Approximate
03:33AM 20.5579 -82.3572 119° Southeast  Level FlightAware Approximate
03:34AM 20.4989 -82.2426 119° Southeast  Level FlightAware Approximate
03:35AM 20.4398 -82.1281 119° Southeast  Level FlightAware Approximate
03:36AM 20.3806 -82.0137 119° Southeast  Level FlightAware Approximate
03:37AM 20.3214 -81.8994 119° Southeast  Level FlightAware Approximate
03:38AM 20.2620 -81.7852 119° Southeast  Level FlightAware Approximate
03:39AM 20.2026 -81.6710 119° Southeast  Level FlightAware Approximate
03:40AM 20.1432 -81.5570 119° Southeast  Level FlightAware Approximate
03:41AM 20.0836 -81.4430 119° Southeast  Level FlightAware Approximate
03:42AM 20.0240 -81.3291 119° Southeast  Level FlightAware Approximate
03:43AM 19.9687 -81.2152 123° Southeast  Level FlightAware Approximate
03:44AM 19.9020 -81.1059 123° Southeast  Level FlightAware Approximate
03:45AM 19.8353 -80.9967 123° Southeast  Level FlightAware Approximate
03:46AM 19.7686 -80.8876 123° Southeast  Level FlightAware Approximate
03:47AM 19.7017 -80.7785 123° Southeast  Level FlightAware Approximate
03:48AM 19.6348 -80.6696 123° Southeast  Level FlightAware Approximate
03:49AM 19.5679 -80.5608 123° Southeast  Level FlightAware Approximate
03:50AM 19.5009 -80.4520 123° Southeast  Level FlightAware Approximate
03:51AM 19.4338 -80.3433 123° Southeast  Level FlightAware Approximate
03:52AM 19.3666 -80.2347 123° Southeast  Level FlightAware Approximate
03:53AM 19.2994 -80.1263 123° Southeast  Level FlightAware Approximate
03:54AM 19.2321 -80.0179 123° Southeast  Level FlightAware Approximate
03:55AM 19.1647 -79.9095 123° Southeast  Level FlightAware Approximate
03:56AM 19.0973 -79.8013 123° Southeast  Level FlightAware Approximate
03:57AM 19.0299 -79.6932 123° Southeast  Level FlightAware Approximate
03:58AM 18.9623 -79.5851 123° Southeast  Level FlightAware Approximate
03:59AM 18.8947 -79.4772 123° Southeast  Level FlightAware Approximate
04:00AM 18.8270 -79.3693 124° Southeast  Level FlightAware Approximate
04:01AM 18.7593 -79.2615 124° Southeast  Level FlightAware Approximate
04:02AM 18.6915 -79.1538 124° Southeast  Level FlightAware Approximate
04:03AM 18.6237 -79.0462 124° Southeast  Level FlightAware Approximate
04:04AM 18.5558 -78.9387 124° Southeast  Level FlightAware Approximate
04:05AM 18.4878 -78.8313 124° Southeast  Level FlightAware Approximate
04:06AM 18.4198 -78.7239 124° Southeast  Level FlightAware Approximate
04:07AM 18.3517 -78.6166 124° Southeast  Level FlightAware Approximate
04:08AM 18.2835 -78.5095 124° Southeast  Level FlightAware Approximate
04:09AM 18.2153 -78.4024 124° Southeast  Level FlightAware Approximate
04:10AM 18.1471 -78.2953 124° Southeast  Level FlightAware Approximate
04:11AM 18.0787 -78.1884 124° Southeast  Level FlightAware Approximate
04:12AM 18.0103 -78.0816 124° Southeast  Level FlightAware Approximate
04:13AM 17.9419 -77.9748 124° Southeast  Level FlightAware Approximate
04:14AM 17.8734 -77.8681 124° Southeast  Level FlightAware Approximate
04:15AM 17.8048 -77.7615 124° Southeast  Level FlightAware Approximate
04:16AM 17.7362 -77.6550 124° Southeast  Level FlightAware Approximate
04:17AM 17.6675 -77.5485 124° Southeast  Level FlightAware Approximate
04:18AM 17.5988 -77.4422 124° Southeast  Level FlightAware Approximate
04:19AM 17.5300 -77.3359 124° Southeast  Level FlightAware Approximate
04:20AM 17.4611 -77.2297 124° Southeast  Level FlightAware Approximate
04:21AM 17.3922 -77.1236 124° Southeast  Level FlightAware Approximate
04:22AM 17.3233 -77.0175 124° Southeast  Level FlightAware Approximate
04:23AM 17.2542 -76.9116 124° Southeast  Level FlightAware Approximate
04:24AM 17.1852 -76.8057 124° Southeast  Level FlightAware Approximate
04:25AM 17.1160 -76.6999 124° Southeast  Level FlightAware Approximate
04:26AM 17.0469 -76.5942 124° Southeast  Level FlightAware Approximate
04:27AM 16.9776 -76.4885 124° Southeast  Level FlightAware Approximate
04:28AM 16.9083 -76.3830 124° Southeast  Level FlightAware Approximate
04:29AM 16.8390 -76.2775 124° Southeast  Level FlightAware Approximate
04:30AM 16.7696 -76.1721 125° Southeast  Level FlightAware Approximate
04:31AM 16.7001 -76.0668 125° Southeast  Level FlightAware Approximate
04:32AM 16.6306 -75.9615 125° Southeast  Level FlightAware Approximate
04:33AM 16.5611 -75.8563 125° Southeast  Level FlightAware Approximate
04:34AM 16.4914 -75.7512 125° Southeast  Level FlightAware Approximate
04:35AM 16.4218 -75.6462 125° Southeast  Level FlightAware Approximate
04:36AM 16.3521 -75.5413 125° Southeast  Level FlightAware Approximate
04:37AM 16.2823 -75.4364 125° Southeast  Level FlightAware Approximate
04:38AM 16.2125 -75.3316 125° Southeast  Level FlightAware Approximate
04:39AM 16.1426 -75.2268 125° Southeast  Level FlightAware Approximate
04:40AM 16.0727 -75.1222 125° Southeast  Level FlightAware Approximate
04:41AM 16.0027 -75.0176 125° Southeast  Level FlightAware Approximate
04:42AM 15.9327 -74.9131 125° Southeast  Level FlightAware Approximate
04:43AM 15.8626 -74.8087 125° Southeast  Level FlightAware Approximate
04:44AM 15.7925 -74.7043 125° Southeast  Level FlightAware Approximate
04:45AM 15.7223 -74.6000 125° Southeast  Level FlightAware Approximate
04:46AM 15.6521 -74.4958 125° Southeast  Level FlightAware Approximate
04:47AM 15.5818 -74.3917 125° Southeast  Level FlightAware Approximate
04:48AM 15.5115 -74.2876 125° Southeast  Level FlightAware Approximate
04:49AM 15.4411 -74.1836 125° Southeast  Level FlightAware Approximate
04:50AM 15.3707 -74.0797 125° Southeast  Level FlightAware Approximate
04:51AM 15.3003 -73.9758 125° Southeast  Level FlightAware Approximate
04:52AM 15.2300 -73.8718 125° Southeast  Level FlightAware Approximate
04:53AM 15.1597 -73.7679 125° Southeast  Level FlightAware Approximate
04:54AM 15.0894 -73.6640 125° Southeast  Level FlightAware Approximate
04:55AM 15.0190 -73.5603 125° Southeast  Level FlightAware Approximate
04:56AM 14.9485 -73.4566 125° Southeast  Level FlightAware Approximate
04:57AM 14.8780 -73.3529 125° Southeast  Level FlightAware Approximate
04:58AM 14.8075 -73.2494 125° Southeast  Level FlightAware Approximate
04:59AM 14.7369 -73.1459 125° Southeast  Level FlightAware Approximate
05:00AM 14.6662 -73.0424 125° Southeast  Level FlightAware Approximate
05:01AM 14.5955 -72.9391 125° Southeast  Level FlightAware Approximate
05:02AM 14.5267 -72.8385 125° Southeast  Level FlightAware Approximate
05:03AM 14.4578 -72.7380 125° Southeast  Level FlightAware Approximate
05:04AM 14.3889 -72.6376 125° Southeast  Level FlightAware Approximate
05:04AM 14.1980 -72.1580 125° Southeast 450 518 37,000  Level FlightAware
05:05AM 14.3199 -72.5372 125° Southeast  Level FlightAware Approximate
05:05AM 14.1600 -72.0840 118° Southeast 453 521 37,000  Level FlightAware
05:06AM 14.1190 -72.0060 118° Southeast 453 521 37,000  Level FlightAware
05:07AM 14.0770 -71.9240 118° Southeast 455 524 37,000  Level FlightAware
05:07AM 14.0300 -71.8350 119° Southeast 453 521 37,000  Level FlightAware
05:08AM 13.9850 -71.7480 118° Southeast 452 520 37,000  Level FlightAware
05:09AM 13.9410 -71.6640 118° Southeast 452 520 37,000  Level FlightAware
05:09AM 13.9000 -71.5860 118° Southeast 452 520 37,000  Level FlightAware
05:10AM 13.8600 -71.5100 118° Southeast 451 519 37,000  Level FlightAware
05:11AM 13.8240 -71.4410 118° Southeast 454 522 37,000  Level FlightAware
05:11AM 13.7900 -71.3750 118° Southeast 450 518 37,000  Level FlightAware
05:12AM 13.7490 -71.2980 119° Southeast 453 521 37,000  Level FlightAware
05:13AM 13.7100 -71.2230 118° Southeast 452 520 37,000  Level FlightAware
05:13AM 13.6700 -71.1470 118° Southeast 451 519 37,000  Level FlightAware
05:14AM 13.6210 -71.0550 119° Southeast 449 517 37,000  Level FlightAware
05:15AM 13.5820 -70.9800 118° Southeast 448 516 37,000  Level FlightAware
05:15AM 13.5470 -70.9130 118° Southeast 448 516 37,000  Level FlightAware
05:16AM 13.5080 -70.8390 118° Southeast 447 514 37,000  Level FlightAware
05:17AM 13.4680 -70.7640 119° Southeast 447 514 37,000  Level FlightAware
05:17AM 13.4280 -70.6870 118° Southeast 447 514 37,000  Level FlightAware
05:18AM 13.3930 -70.6210 119° Southeast 447 514 37,000  Level FlightAware
05:19AM 13.3530 -70.5470 119° Southeast 445 512 37,000  Level FlightAware
05:20AM 13.2860 -70.4190 118° Southeast 443 510 37,000  Level FlightAware
05:21AM 13.2360 -70.3250 119° Southeast 442 509 37,000  Level FlightAware
05:21AM 13.1970 -70.2520 119° Southeast 443 510 37,000  Level FlightAware
05:22AM 13.1520 -70.1680 119° Southeast 444 511 37,000  Level FlightAware
05:23AM 13.1120 -70.0930 119° Southeast 445 512 37,000  Level FlightAware
05:23AM 13.0780 -70.0280 118° Southeast 446 513 37,000  Level FlightAware
05:24AM 13.0430 -69.9620 119° Southeast 446 513 37,000  Level FlightAware
05:25AM 12.9940 -69.8710 119° Southeast 446 513 37,000 -960 Level FlightAware
05:26AM 12.9540 -69.7960 119° Southeast 440 506 35,700 -2,940 Descending FlightAware
05:26AM 12.9050 -69.7040 119° Southeast 446 513 33,000 -3,600 Descending FlightAware
05:27AM 12.8640 -69.6290 119° Southeast 453 521 30,700 -3,120 Descending FlightAware
05:28AM 12.8140 -69.5470 122° Southeast 455 524 28,600 -2,760 Descending FlightAware
05:28AM 12.7630 -69.4770 127° Southeast 445 512 26,800 -2,400 Descending FlightAware
05:29AM 12.7140 -69.4100 127° Southeast 429 494 25,300 -2,820 Descending FlightAware
05:30AM 12.6670 -69.3450 127° Southeast 419 482 23,000 -3,300 Descending FlightAware
05:30AM 12.6150 -69.2740 127° Southeast 410 472 20,800 -3,060 Descending FlightAware
05:31AM 12.5700 -69.2120 127° Southeast 389 448 18,700 -2,340 Descending FlightAware
05:32AM 12.5070 -69.1260 127° Southeast 360 414 16,900 -1,920 Descending FlightAware
05:33AM 12.4660 -69.0700 127° Southeast 357 411 15,500 -2,040 Descending FlightAware
05:33AM 12.4280 -69.0170 126° Southeast 348 400 14,200 -1,920 Descending FlightAware
05:34AM 12.3900 -68.9650 127° Southeast 337 388 12,800 -1,980 Descending FlightAware
05:35AM 12.3480 -68.9070 127° Southeast 326 375 11,400 -1,740 Descending FlightAware
05:36AM 12.3100 -68.8550 127° Southeast 305 351 10,400 -1,020 Descending FlightAware
05:36AM 12.2820 -68.8170 127° Southeast 277 319 10,100 -600 Descending FlightAware
05:36AM 12.2690 -68.8000 128° Southeast 264 304 9,900 -1,200 Descending FlightAware
05:37AM 12.2510 -68.7740 125° Southeast 260 299 9,300 -1,500 Descending FlightAware
05:37AM 12.2390 -68.7590 129° Southeast 259 298 8,900 -1,500 Descending FlightAware
05:38AM 12.2190 -68.7310 126° Southeast 258 297 8,200 -1,320 Descending FlightAware
05:38AM 12.2020 -68.7080 127° Southeast 255 293 7,700 -1,440 Descending FlightAware
05:39AM 12.1790 -68.6770 127° Southeast 254 292 6,900 -1,500 Descending FlightAware
05:39AM 12.1610 -68.6520 126° Southeast 252 290 6,300 -1,380 Descending FlightAware
05:39AM 12.1420 -68.6220 123° Southeast 248 285 5,600 -1,680 Descending FlightAware
05:40AM 12.1390 -68.6100 104° East 248 285 5,300 -1,380 Descending FlightAware
05:40AM 12.1390 -68.5940 90° East 248 285 5,000 -960 Descending FlightAware
05:40AM 12.1380 -68.5700 92° East 243 280 4,700 -900 Descending FlightAware
05:41AM 12.1380 -68.5420 90° East 230 265 4,400 -600 Descending FlightAware
05:41AM 12.1370 -68.5070 92° East 206 237 4,200 -600 Descending FlightAware
05:42AM 12.1370 -68.4790 90° East 189 217 3,800 -900 Descending FlightAware
05:42AM 12.1370 -68.4580 90° East 184 212 3,400 -960 Descending FlightAware
05:43AM 12.1360 -68.4370 93° East 180 207 3,000 -960 Descending FlightAware
05:43AM 12.1350 -68.4150 93° East 175 201 2,600 -960 Descending FlightAware
05:43AM 12.1350 -68.3950 90° East 168 193 2,200 -900 Descending FlightAware
05:44AM 12.1340 -68.3770 93° East 148 170 1,900 -720 Descending FlightAware
05:44AM 12.1340 -68.3660 90° East 141 162 1,700 -840 Descending FlightAware
05:45AM 12.1330 -68.3470 93° East 130 150 1,300 -720 Descending FlightAware
05:45AM 12.1330 -68.3330 90° East 129 148 1,100 -720 Descending FlightAware
05:45AM 12.1320 -68.3140 93° East 130 150 700 -780 Descending FlightAware
05:46AM 12.1320 -68.3080 90° East 130 150 600 -600 Descending FlightAware
05:46AM 12.1320 -68.2920 90° East 133 153 300 -420 Descending FlightAware
05:47AM 12.1310 -68.2760 94° East 134 154 200 -240 Descending FlightAware
05:49AM 12.1310 -68.2685 100° East  Level Estimated
05:50AM 12.1310 -68.2685 100° East  Level Estimated